createdAt,value
2022-10-16T00:00:02.519Z,166.60
2022-10-16T00:01:02.424Z,163.30
2022-10-16T00:02:02.551Z,164.80
2022-10-16T00:03:02.409Z,168.60
2022-10-16T00:04:02.398Z,217.70
2022-10-16T00:05:02.409Z,240.40
2022-10-16T00:06:02.374Z,296.80
2022-10-16T00:07:02.368Z,249.40
2022-10-16T00:08:02.349Z,191.80
2022-10-16T00:09:02.318Z,213.40
2022-10-16T00:10:02.370Z,272.80
2022-10-16T00:11:02.300Z,308.10
2022-10-16T00:12:02.309Z,287.80
2022-10-16T00:13:02.289Z,288.50
2022-10-16T00:14:02.289Z,281.10
2022-10-16T00:15:02.320Z,262.20
2022-10-16T00:16:02.269Z,248.10
2022-10-16T00:17:02.255Z,205.50
2022-10-16T00:18:02.229Z,195.80
2022-10-16T00:19:02.209Z,209.20
2022-10-16T00:20:02.261Z,249.20
2022-10-16T00:21:02.213Z,303.30
2022-10-16T00:22:02.191Z,286.00
2022-10-16T00:23:02.195Z,286.90
2022-10-16T00:24:02.174Z,283.00
2022-10-16T00:25:02.205Z,290.00
2022-10-16T00:26:02.131Z,286.10
2022-10-16T00:27:02.114Z,266.30
2022-10-16T00:28:02.104Z,256.50
2022-10-16T00:29:02.162Z,270.00
2022-10-16T00:30:02.164Z,269.30
2022-10-16T00:31:02.122Z,275.60
2022-10-16T00:32:02.067Z,268.10
2022-10-16T00:33:02.065Z,270.70
2022-10-16T00:34:02.048Z,252.40
2022-10-16T00:35:02.057Z,238.60
2022-10-16T00:36:02.094Z,236.60
2022-10-16T00:37:02.027Z,265.50
2022-10-16T00:38:02.027Z,277.10
2022-10-16T00:39:02.644Z,303.70
2022-10-16T00:40:01.988Z,358.30
2022-10-16T00:41:02.015Z,220.60
2022-10-16T00:42:01.969Z,236.50
2022-10-16T00:43:01.956Z,155.20
2022-10-16T00:44:01.946Z,265.10
2022-10-16T00:45:01.934Z,239.10
2022-10-16T00:46:01.941Z,325.10
2022-10-16T00:47:01.906Z,355.80
2022-10-16T00:48:01.970Z,393.80
2022-10-16T00:49:01.894Z,292.90
2022-10-16T00:50:01.882Z,197.10
2022-10-16T00:51:01.904Z,200.20
2022-10-16T00:52:01.855Z,252.10
2022-10-16T00:53:01.824Z,284.50
2022-10-16T00:54:01.838Z,307.30
2022-10-16T00:55:01.810Z,308.80
2022-10-16T00:56:01.829Z,329.70
2022-10-16T00:57:01.808Z,255.50
2022-10-16T00:58:01.770Z,221.60
2022-10-16T00:59:01.748Z,233.90
2022-10-16T01:00:01.745Z,256.80
2022-10-16T01:01:01.859Z,257.20
2022-10-16T01:02:01.739Z,288.40
2022-10-16T01:03:01.734Z,290.70
2022-10-16T01:04:01.704Z,311.00
2022-10-16T01:05:01.691Z,292.00
2022-10-16T01:06:01.733Z,241.30
2022-10-16T01:07:01.671Z,216.00
2022-10-16T01:08:01.674Z,224.30
2022-10-16T01:09:01.651Z,263.00
2022-10-16T01:10:01.655Z,307.70
2022-10-16T01:11:01.681Z,293.20
2022-10-16T01:12:01.612Z,263.20
2022-10-16T01:13:01.605Z,262.20
2022-10-16T01:14:01.584Z,237.80
2022-10-16T01:15:01.596Z,220.40
2022-10-16T01:16:01.633Z,287.80
2022-10-16T01:17:01.588Z,312.60
2022-10-16T01:18:01.556Z,233.00
2022-10-16T01:19:01.524Z,205.50
2022-10-16T01:20:01.542Z,235.60
2022-10-16T01:21:01.557Z,258.20
2022-10-16T01:22:01.506Z,273.80
2022-10-16T01:23:01.492Z,333.80
2022-10-16T01:24:01.498Z,329.00
2022-10-16T01:25:01.491Z,234.90
2022-10-16T01:26:01.490Z,221.50
2022-10-16T01:27:01.439Z,215.90
2022-10-16T01:28:01.428Z,216.90
2022-10-16T01:29:01.472Z,245.10
2022-10-16T01:30:01.423Z,264.80
2022-10-16T01:31:01.471Z,262.30
2022-10-16T01:32:01.388Z,213.90
2022-10-16T01:33:01.397Z,248.20
2022-10-16T01:34:01.364Z,253.40
2022-10-16T01:35:01.349Z,201.50
2022-10-16T01:36:01.492Z,204.00
2022-10-16T01:37:01.325Z,227.40
2022-10-16T01:38:01.318Z,261.50
2022-10-16T01:39:01.320Z,272.60
2022-10-16T01:40:01.290Z,206.80
2022-10-16T01:41:01.322Z,286.50
2022-10-16T01:42:01.277Z,209.70
2022-10-16T01:43:01.259Z,241.50
2022-10-16T01:44:01.246Z,276.20
2022-10-16T01:45:01.235Z,228.90
2022-10-16T01:46:01.263Z,265.50
2022-10-16T01:47:01.233Z,205.00
2022-10-16T01:48:01.214Z,283.50
2022-10-16T01:49:01.193Z,203.70
2022-10-16T01:50:01.187Z,268.30
2022-10-16T01:51:01.212Z,252.60
2022-10-16T01:53:01.148Z,268.10
2022-10-16T01:54:01.166Z,275.90
2022-10-16T01:55:01.159Z,234.90
2022-10-16T01:56:01.174Z,278.80
2022-10-16T01:57:01.091Z,259.00
2022-10-16T01:58:01.087Z,268.30
2022-10-16T01:59:01.069Z,268.40
2022-10-16T02:00:01.092Z,277.30
2022-10-16T02:01:01.191Z,279.80
2022-10-16T02:02:01.069Z,275.00
2022-10-16T02:03:01.044Z,273.10
2022-10-16T02:04:01.022Z,323.80
2022-10-16T02:05:01.023Z,318.30
2022-10-16T02:06:01.052Z,296.20
2022-10-16T02:07:01.006Z,292.60
2022-10-16T02:08:03.223Z,281.10
2022-10-16T02:09:00.986Z,298.90
2022-10-16T02:10:00.966Z,277.50
2022-10-16T02:11:00.997Z,280.20
2022-10-16T02:12:00.930Z,188.70
2022-10-16T02:13:00.923Z,240.10
2022-10-16T02:14:00.947Z,304.40
2022-10-16T02:15:00.901Z,342.40
2022-10-16T02:16:00.931Z,166.80
2022-10-16T02:17:00.885Z,292.60
2022-10-16T02:18:00.905Z,271.60
2022-10-16T02:19:00.869Z,200.80
2022-10-16T02:20:00.833Z,327.40
2022-10-16T02:21:00.881Z,285.90
2022-10-16T02:22:00.827Z,226.70
2022-10-16T02:23:00.822Z,163.90
2022-10-16T02:24:00.798Z,378.10
2022-10-16T02:25:00.802Z,165.20
2022-10-16T02:26:00.801Z,163.60
2022-10-16T02:27:00.758Z,263.60
2022-10-16T02:28:00.748Z,188.30
2022-10-16T02:29:00.740Z,292.80
2022-10-16T02:30:00.738Z,173.60
2022-10-16T02:31:00.786Z,182.40
2022-10-16T02:32:00.708Z,295.60
2022-10-16T02:33:00.708Z,130.30
2022-10-16T02:34:00.706Z,248.20
2022-10-16T02:35:00.682Z,243.50
2022-10-16T02:36:00.710Z,118.00
2022-10-16T02:37:00.663Z,286.70
2022-10-16T02:38:00.681Z,184.00
2022-10-16T02:39:00.641Z,113.50
2022-10-16T02:40:00.617Z,190.60
2022-10-16T02:41:00.655Z,283.20
2022-10-16T02:42:00.600Z,164.40
2022-10-16T02:43:00.580Z,108.20
2022-10-16T02:44:00.593Z,181.80
2022-10-16T02:45:00.565Z,193.20
2022-10-16T02:46:00.598Z,267.00
2022-10-16T02:47:00.612Z,223.40
2022-10-16T02:48:00.544Z,160.30
2022-10-16T02:49:00.519Z,142.30
2022-10-16T02:50:00.510Z,156.10
2022-10-16T02:51:00.549Z,229.30
2022-10-16T02:52:00.488Z,225.10
2022-10-16T02:53:00.469Z,197.00
2022-10-16T02:54:00.466Z,170.80
2022-10-16T02:55:00.456Z,213.10
2022-10-16T02:56:00.467Z,229.00
2022-10-16T02:57:00.415Z,230.80
2022-10-16T02:58:00.401Z,196.80
2022-10-16T02:59:00.414Z,204.30
2022-10-16T03:00:00.389Z,200.60
2022-10-16T03:01:00.459Z,193.90
2022-10-16T03:02:00.399Z,232.10
2022-10-16T03:03:00.357Z,222.60
2022-10-16T03:04:00.346Z,216.60
2022-10-16T03:05:00.334Z,224.70
2022-10-16T03:06:00.357Z,213.40
2022-10-16T03:07:00.317Z,194.20
2022-10-16T03:08:00.312Z,193.20
2022-10-16T03:09:00.297Z,191.60
2022-10-16T03:10:00.298Z,209.30
2022-10-16T03:11:00.315Z,207.50
2022-10-16T03:12:00.246Z,228.10
2022-10-16T03:13:00.256Z,204.80
2022-10-16T03:14:00.236Z,188.40
2022-10-16T03:15:00.247Z,192.60
2022-10-16T03:16:00.270Z,208.20
2022-10-16T03:17:00.185Z,195.90
2022-10-16T03:18:00.199Z,206.60
2022-10-16T03:19:00.176Z,187.90
2022-10-16T03:20:00.165Z,251.00
2022-10-16T03:21:00.212Z,222.60
2022-10-16T03:22:00.150Z,222.20
2022-10-16T03:23:00.140Z,184.30
2022-10-16T03:24:00.138Z,208.40
2022-10-16T03:25:00.120Z,231.70
2022-10-16T03:26:00.125Z,247.70
2022-10-16T03:27:00.078Z,264.00
2022-10-16T03:28:00.055Z,258.00
2022-10-16T03:29:00.121Z,260.60
2022-10-16T03:30:00.045Z,256.50
2022-10-16T03:31:00.093Z,248.90
2022-10-16T03:32:00.029Z,185.30
2022-10-16T03:33:00.020Z,251.50
2022-10-16T03:34:00.011Z,264.80
2022-10-16T03:34:59.990Z,221.90
2022-10-16T03:36:00.024Z,196.40
2022-10-16T03:36:59.971Z,214.70
2022-10-16T03:37:59.970Z,230.70
2022-10-16T03:38:59.961Z,239.20
2022-10-16T03:39:59.924Z,254.60
2022-10-16T03:40:59.969Z,232.30
2022-10-16T03:41:59.917Z,222.50
2022-10-16T03:42:59.922Z,231.10
2022-10-16T03:43:59.884Z,204.90
2022-10-16T03:44:59.884Z,230.40
2022-10-16T03:45:59.902Z,202.70
2022-10-16T03:46:59.855Z,226.80
2022-10-16T03:47:59.871Z,243.20
2022-10-16T03:48:59.843Z,199.80
2022-10-16T03:49:59.811Z,180.70
2022-10-16T03:50:59.842Z,241.60
2022-10-16T03:51:59.790Z,273.80
2022-10-16T03:52:59.792Z,203.20
2022-10-16T03:53:59.770Z,215.70
2022-10-16T03:54:59.770Z,207.90
2022-10-16T03:55:59.781Z,274.70
2022-10-16T03:56:59.741Z,254.80
2022-10-16T03:57:59.711Z,188.70
2022-10-16T03:59:00.492Z,224.00
2022-10-16T03:59:59.704Z,203.10
2022-10-16T04:00:59.781Z,267.10
2022-10-16T04:01:59.675Z,267.90
2022-10-16T04:02:59.674Z,246.90
2022-10-16T04:03:59.648Z,219.50
2022-10-16T04:04:59.652Z,197.60
2022-10-16T04:05:59.678Z,271.20
2022-10-16T04:06:59.631Z,194.00
2022-10-16T04:07:59.622Z,282.10
2022-10-16T04:08:59.602Z,192.20
2022-10-16T04:09:59.590Z,231.00
2022-10-16T04:10:59.624Z,257.20
2022-10-16T04:11:59.564Z,256.90
2022-10-16T04:12:59.558Z,286.50
2022-10-16T04:13:59.549Z,253.50
2022-10-16T04:14:59.541Z,223.70
2022-10-16T04:15:59.569Z,192.50
2022-10-16T04:16:59.512Z,292.80
2022-10-16T04:17:59.503Z,243.70
2022-10-16T04:18:59.500Z,199.80
2022-10-16T04:19:59.477Z,222.80
2022-10-16T04:20:59.518Z,279.20
2022-10-16T04:21:59.466Z,263.60
2022-10-16T04:22:59.444Z,277.00
2022-10-16T04:23:59.430Z,316.70
2022-10-16T04:24:59.429Z,232.90
2022-10-16T04:25:59.453Z,276.70
2022-10-16T04:26:59.400Z,263.40
2022-10-16T04:27:59.400Z,288.50
2022-10-16T04:28:59.409Z,230.80
2022-10-16T04:29:59.353Z,255.30
2022-10-16T04:30:59.386Z,320.40
2022-10-16T04:31:59.337Z,289.40
2022-10-16T04:33:59.334Z,244.40
2022-10-16T04:34:59.309Z,286.00
2022-10-16T04:35:59.336Z,203.50
2022-10-16T04:36:59.284Z,158.70
2022-10-16T04:37:59.266Z,115.10
2022-10-16T04:38:59.262Z,105.60
2022-10-16T04:39:59.247Z,103.00
2022-10-16T04:40:59.288Z,150.30
2022-10-16T04:41:59.220Z,265.10
2022-10-16T04:42:59.224Z,352.30
2022-10-16T04:43:59.202Z,322.60
2022-10-16T04:44:59.197Z,347.60
2022-10-16T04:45:59.215Z,286.70
2022-10-16T04:46:59.178Z,129.60
2022-10-16T04:47:59.157Z,126.50
2022-10-16T04:48:59.154Z,107.50
2022-10-16T04:49:59.136Z,146.10
2022-10-16T04:50:59.177Z,140.40
2022-10-16T04:51:59.114Z,194.10
2022-10-16T04:52:59.105Z,269.90
2022-10-16T04:53:59.091Z,258.40
2022-10-16T04:54:59.085Z,212.80
2022-10-16T04:55:59.098Z,200.40
2022-10-16T04:56:59.071Z,165.20
2022-10-16T04:57:59.073Z,145.00
2022-10-16T04:58:59.044Z,144.90
2022-10-16T04:59:59.010Z,210.00
2022-10-16T05:00:59.041Z,226.80
2022-10-16T05:01:58.993Z,196.90
2022-10-16T05:02:59.031Z,197.50
2022-10-16T05:03:58.974Z,258.80
2022-10-16T05:04:58.968Z,260.80
2022-10-16T05:05:59.002Z,270.60
2022-10-16T05:06:58.950Z,247.20
2022-10-16T05:07:58.930Z,263.30
2022-10-16T05:08:58.931Z,276.70
2022-10-16T05:09:58.905Z,244.40
2022-10-16T05:10:58.944Z,190.80
2022-10-16T05:11:58.894Z,128.50
2022-10-16T05:12:58.878Z,183.80
2022-10-16T05:13:58.887Z,284.60
2022-10-16T05:14:58.855Z,263.60
2022-10-16T05:15:58.880Z,294.50
2022-10-16T05:16:58.835Z,300.30
2022-10-16T05:17:58.824Z,382.90
2022-10-16T05:19:22.425Z,307.60
2022-10-16T05:19:59.796Z,258.50
2022-10-16T05:20:58.829Z,206.60
2022-10-16T05:21:58.777Z,219.80
2022-10-16T05:22:58.845Z,280.70
2022-10-16T05:23:58.748Z,309.80
2022-10-16T05:24:58.751Z,262.80
2022-10-16T05:25:58.763Z,310.40
2022-10-16T05:26:58.724Z,376.50
2022-10-16T05:27:58.705Z,372.40
2022-10-16T05:28:58.717Z,344.10
2022-10-16T05:29:58.679Z,375.90
2022-10-16T05:30:58.714Z,377.30
2022-10-16T05:31:58.643Z,350.80
2022-10-16T05:32:58.638Z,270.10
2022-10-16T05:33:58.629Z,356.10
2022-10-16T05:34:58.614Z,344.00
2022-10-16T05:35:58.659Z,208.30
2022-10-16T05:36:58.614Z,237.70
2022-10-16T05:37:58.589Z,300.80
2022-10-16T05:38:58.578Z,315.50
2022-10-16T05:39:58.570Z,285.10
2022-10-16T05:40:58.604Z,341.30
2022-10-16T05:41:58.535Z,350.90
2022-10-16T05:42:58.533Z,284.10
2022-10-16T05:43:58.517Z,323.60
2022-10-16T05:44:58.510Z,323.60
2022-10-16T05:45:58.541Z,292.30
2022-10-16T05:46:58.489Z,225.90
2022-10-16T05:47:58.475Z,274.10
2022-10-16T05:48:58.472Z,289.90
2022-10-16T05:49:58.447Z,253.30
2022-10-16T05:50:58.486Z,253.80
2022-10-16T05:51:58.437Z,195.20
2022-10-16T05:52:58.424Z,272.10
2022-10-16T05:53:58.405Z,283.50
2022-10-16T05:54:58.404Z,316.60
2022-10-16T05:55:58.430Z,342.50
2022-10-16T05:56:58.381Z,286.00
2022-10-16T05:57:58.386Z,254.80
2022-10-16T05:58:58.360Z,212.90
2022-10-16T05:59:58.341Z,250.00
2022-10-16T06:00:58.459Z,231.90
2022-10-16T06:01:58.312Z,189.80
2022-10-16T06:02:58.322Z,296.70
2022-10-16T06:03:58.351Z,273.50
2022-10-16T06:04:58.274Z,273.20
2022-10-16T06:05:58.309Z,229.80
2022-10-16T06:06:58.287Z,180.20
2022-10-16T06:07:58.245Z,230.60
2022-10-16T06:08:58.235Z,272.00
2022-10-16T06:09:58.224Z,282.40
2022-10-16T06:10:58.257Z,256.20
2022-10-16T06:11:58.209Z,229.40
2022-10-16T06:12:58.194Z,190.90
2022-10-16T06:13:58.182Z,210.10
2022-10-16T06:14:58.173Z,270.40
2022-10-16T06:15:58.206Z,271.40
2022-10-16T06:16:58.151Z,253.70
2022-10-16T06:17:58.132Z,249.70
2022-10-16T06:18:58.125Z,247.10
2022-10-16T06:19:58.109Z,244.40
2022-10-16T06:20:58.146Z,247.30
2022-10-16T06:21:58.084Z,244.70
2022-10-16T06:22:58.081Z,248.10
2022-10-16T06:23:58.064Z,256.40
2022-10-16T06:24:58.059Z,246.70
2022-10-16T06:25:58.081Z,279.50
2022-10-16T06:26:58.027Z,299.30
2022-10-16T06:27:58.021Z,250.50
2022-10-16T06:28:58.082Z,227.50
2022-10-16T06:29:58.021Z,364.10
2022-10-16T06:30:58.030Z,201.80
2022-10-16T06:31:57.974Z,169.90
2022-10-16T06:32:57.972Z,151.10
2022-10-16T06:33:57.947Z,281.30
2022-10-16T06:34:57.949Z,324.70
2022-10-16T06:35:57.965Z,325.60
2022-10-16T06:36:57.912Z,296.40
2022-10-16T06:37:57.904Z,272.80
2022-10-16T06:38:57.911Z,219.80
2022-10-16T06:39:57.891Z,193.10
2022-10-16T06:40:57.921Z,180.20
2022-10-16T06:41:57.893Z,177.40
2022-10-16T06:42:57.853Z,159.80
2022-10-16T06:43:57.882Z,109.90
2022-10-16T06:44:57.852Z,197.10
2022-10-16T06:45:57.895Z,215.40
2022-10-16T06:46:57.802Z,246.30
2022-10-16T06:47:57.818Z,221.70
2022-10-16T06:48:57.783Z,246.80
2022-10-16T06:49:57.798Z,237.10
2022-10-16T06:50:57.870Z,286.50
2022-10-16T06:51:57.784Z,222.80
2022-10-16T06:52:57.748Z,219.60
2022-10-16T06:54:04.955Z,254.50
2022-10-16T06:54:58.730Z,212.40
2022-10-16T06:55:57.770Z,195.40
2022-10-16T06:56:57.712Z,172.90
2022-10-16T06:57:57.683Z,244.70
2022-10-16T06:58:57.698Z,241.90
2022-10-16T06:59:57.680Z,235.00
2022-10-16T07:00:57.702Z,227.20
2022-10-16T07:01:57.650Z,150.00
2022-10-16T07:02:57.623Z,141.20
2022-10-16T07:03:57.632Z,113.40
2022-10-16T07:04:57.592Z,112.80
2022-10-16T07:05:57.632Z,106.80
2022-10-16T07:06:57.573Z,89.70
2022-10-16T07:07:57.574Z,114.40
2022-10-16T07:08:57.563Z,90.40
2022-10-16T07:09:57.589Z,178.70
2022-10-16T07:10:57.610Z,146.10
2022-10-16T07:11:57.523Z,128.00
2022-10-16T07:12:57.522Z,118.30
2022-10-16T07:13:57.508Z,539.70
2022-10-16T07:14:57.498Z,731.80
2022-10-16T07:15:57.541Z,1999.90
2022-10-16T07:16:57.481Z,1999.90
2022-10-16T07:17:57.479Z,1999.90
2022-10-16T07:18:57.446Z,1999.90
2022-10-16T07:19:57.453Z,1999.90
2022-10-16T07:20:57.473Z,1999.90
2022-10-16T07:21:57.434Z,1999.90
2022-10-16T07:22:57.400Z,1999.90
2022-10-16T07:23:57.387Z,1999.90
2022-10-16T07:24:57.379Z,1999.90
2022-10-16T07:25:57.418Z,1999.90
2022-10-16T07:26:57.362Z,1999.90
2022-10-16T07:27:57.374Z,1999.90
2022-10-16T07:28:57.357Z,1999.90
2022-10-16T07:29:57.321Z,1999.90
2022-10-16T07:30:57.352Z,1999.90
2022-10-16T07:31:57.307Z,1999.90
2022-10-16T07:32:57.300Z,1999.90
2022-10-16T07:33:57.288Z,1999.90
2022-10-16T07:34:57.255Z,1999.90
2022-10-16T07:35:57.285Z,1999.90
2022-10-16T07:36:57.241Z,1999.90
2022-10-16T07:37:57.249Z,1999.90
2022-10-16T07:38:59.890Z,1999.90
2022-10-16T07:39:57.233Z,1999.90
2022-10-16T07:40:57.232Z,1999.90
2022-10-16T07:41:57.183Z,1999.90
2022-10-16T07:42:57.186Z,1999.90
2022-10-16T07:43:57.168Z,1999.90
2022-10-16T07:44:57.161Z,1999.90
2022-10-16T07:45:59.024Z,1999.90
2022-10-16T07:46:57.147Z,1999.90
2022-10-16T07:47:57.128Z,1999.90
2022-10-16T07:48:57.109Z,1999.90
2022-10-16T07:49:57.109Z,1999.90
2022-10-16T07:50:57.138Z,1999.90
2022-10-16T07:51:57.093Z,1999.90
2022-10-16T07:52:57.068Z,1999.90
2022-10-16T07:53:57.067Z,1999.90
2022-10-16T07:54:57.054Z,1999.90
2022-10-16T07:55:57.081Z,1999.90
2022-10-16T07:56:57.026Z,1999.90
2022-10-16T07:57:57.003Z,1999.90
2022-10-16T07:58:56.985Z,1999.90
2022-10-16T07:59:56.981Z,1999.90
2022-10-16T08:00:57.050Z,1999.90
2022-10-16T08:01:56.961Z,1999.90
2022-10-16T08:02:56.973Z,1999.90
2022-10-16T08:03:56.972Z,1999.90
2022-10-16T08:04:56.914Z,1999.90
2022-10-16T08:05:56.957Z,1999.90
2022-10-16T08:06:56.894Z,1999.90
2022-10-16T08:07:56.926Z,1999.90
2022-10-16T08:08:56.889Z,1999.90
2022-10-16T08:09:56.883Z,1999.90
2022-10-16T08:10:56.909Z,1999.90
2022-10-16T08:12:02.014Z,1999.90
2022-10-16T08:12:57.902Z,1999.90
2022-10-16T08:13:56.866Z,1999.90
2022-10-16T08:14:56.820Z,1999.90
2022-10-16T08:15:56.861Z,1999.90
2022-10-16T08:16:56.805Z,1999.90
2022-10-16T08:17:56.789Z,1999.90
2022-10-16T08:18:56.780Z,1999.90
2022-10-16T08:19:56.771Z,1999.90
2022-10-16T08:20:56.811Z,1999.90
2022-10-16T08:21:56.750Z,1999.90
2022-10-16T08:22:56.733Z,1999.90
2022-10-16T08:23:58.059Z,1999.90
2022-10-16T08:24:56.708Z,1999.90
2022-10-16T08:25:56.743Z,1999.90
2022-10-16T08:26:56.683Z,1999.90
2022-10-16T08:27:56.698Z,1999.90
2022-10-16T08:28:56.783Z,1999.90
2022-10-16T08:29:56.669Z,1999.90
2022-10-16T08:30:56.698Z,1999.90
2022-10-16T08:31:56.643Z,1999.90
2022-10-16T08:32:56.633Z,1999.90
2022-10-16T08:33:56.603Z,1999.90
2022-10-16T08:34:56.571Z,1999.90
2022-10-16T08:35:56.620Z,1999.90
2022-10-16T08:36:56.562Z,1999.90
2022-10-16T08:37:56.584Z,819.40
2022-10-16T08:38:56.572Z,1999.90
2022-10-16T08:39:56.552Z,1612.50
2022-10-16T08:40:56.581Z,81.60
2022-10-16T08:41:56.533Z,22.60
2022-10-16T08:42:56.512Z,10.90
2022-10-16T08:43:56.517Z,11.30
2022-10-16T08:44:56.487Z,10.90
2022-10-16T08:45:56.516Z,12.50
2022-10-16T08:46:56.461Z,11.10
2022-10-16T08:47:56.469Z,11.20
2022-10-16T08:48:56.442Z,11.10
2022-10-16T08:49:56.426Z,10.90
2022-10-16T08:50:56.499Z,10.10
2022-10-16T08:51:56.408Z,10.40
2022-10-16T08:52:56.403Z,10.20
2022-10-16T08:53:56.391Z,10.00
2022-10-16T08:54:56.387Z,10.30
2022-10-16T08:55:56.421Z,9.50
2022-10-16T08:56:56.358Z,9.20
2022-10-16T08:57:56.343Z,9.20
2022-10-16T08:58:59.956Z,8.50
2022-10-16T08:59:57.332Z,8.70
2022-10-16T09:00:56.429Z,9.20
2022-10-16T09:01:56.304Z,9.00
2022-10-16T09:02:56.276Z,8.90
2022-10-16T09:03:56.293Z,7.90
2022-10-16T09:04:56.917Z,8.60
2022-10-16T09:05:56.282Z,8.60
2022-10-16T09:06:56.227Z,9.00
2022-10-16T09:07:56.279Z,9.10
2022-10-16T09:08:56.230Z,8.50
2022-10-16T09:09:56.195Z,8.90
2022-10-16T09:10:56.221Z,9.70
2022-10-16T09:11:56.183Z,9.60
2022-10-16T09:12:56.180Z,11.40
2022-10-16T09:13:56.160Z,11.70
2022-10-16T09:14:56.134Z,13.50
2022-10-16T09:15:56.194Z,13.00
2022-10-16T09:16:56.191Z,14.30
2022-10-16T09:17:56.119Z,61.80
2022-10-16T09:18:56.090Z,44.40
2022-10-16T09:19:56.110Z,1098.60
2022-10-16T09:20:56.126Z,797.00
2022-10-16T09:21:56.095Z,1139.10
2022-10-16T09:22:56.061Z,520.70
2022-10-16T09:23:56.080Z,1999.90
2022-10-16T09:24:56.040Z,1999.90
2022-10-16T09:25:56.094Z,1999.90
2022-10-16T09:26:56.020Z,1999.90
2022-10-16T09:27:55.998Z,1999.90
2022-10-16T09:28:56.084Z,617.20
2022-10-16T09:29:58.954Z,1999.90
2022-10-16T09:30:55.981Z,1999.90
2022-10-16T09:31:56.026Z,1119.30
2022-10-16T09:32:55.965Z,1318.70
2022-10-16T09:33:55.943Z,526.70
2022-10-16T09:34:55.916Z,1154.50
2022-10-16T09:35:55.949Z,895.50
2022-10-16T09:36:55.945Z,1812.00
2022-10-16T09:37:55.897Z,170.80
2022-10-16T09:38:55.901Z,74.60
2022-10-16T09:39:55.881Z,208.60
2022-10-16T09:41:02.459Z,45.20
2022-10-16T09:41:56.909Z,23.10
2022-10-16T09:42:55.851Z,14.20
2022-10-16T09:43:55.817Z,28.10
2022-10-16T09:44:55.844Z,41.20
2022-10-16T09:45:55.819Z,23.80
2022-10-16T09:46:55.872Z,975.90
2022-10-16T09:47:57.814Z,137.70
2022-10-16T09:48:55.776Z,45.30
2022-10-16T09:49:55.786Z,17.70
2022-10-16T09:50:55.754Z,8.90
2022-10-16T09:51:55.782Z,9.30
2022-10-16T09:52:55.733Z,8.90
2022-10-16T09:53:55.717Z,9.70
2022-10-16T09:54:55.713Z,8.80
2022-10-16T09:55:55.701Z,8.40
2022-10-16T09:56:55.725Z,13.10
2022-10-16T09:57:55.678Z,12.70
2022-10-16T09:58:55.671Z,10.10
2022-10-16T09:59:55.659Z,8.50
2022-10-16T10:00:55.645Z,9.50
2022-10-16T10:01:55.707Z,8.70
2022-10-16T10:03:55.599Z,7.60
2022-10-16T10:04:55.589Z,7.20
2022-10-16T10:05:58.503Z,7.60
2022-10-16T10:06:56.620Z,8.60
2022-10-16T10:07:55.584Z,7.70
2022-10-16T10:08:55.555Z,7.60
2022-10-16T10:09:55.573Z,7.40
2022-10-16T10:10:55.533Z,9.40
2022-10-16T10:11:55.645Z,8.50
2022-10-16T10:12:55.513Z,9.00
2022-10-16T10:13:55.494Z,12.40
2022-10-16T10:14:55.489Z,8.00
2022-10-16T10:15:55.468Z,8.30
2022-10-16T10:16:55.504Z,7.60
2022-10-16T10:17:55.451Z,8.20
2022-10-16T10:18:55.486Z,8.40
2022-10-16T10:19:55.428Z,8.50
2022-10-16T10:20:55.508Z,8.30
2022-10-16T10:21:55.458Z,9.00
2022-10-16T10:22:55.396Z,10.60
2022-10-16T10:23:55.404Z,10.70
2022-10-16T10:24:55.368Z,11.10
2022-10-16T10:25:55.386Z,12.50
2022-10-16T10:26:55.414Z,12.70
2022-10-16T10:27:55.349Z,10.70
2022-10-16T10:28:55.420Z,12.20
2022-10-16T10:29:55.344Z,12.90
2022-10-16T10:30:55.326Z,11.20
2022-10-16T10:31:55.349Z,10.60
2022-10-16T10:32:55.290Z,9.70
2022-10-16T10:33:55.270Z,8.40
2022-10-16T10:34:56.718Z,7.40
2022-10-16T10:35:55.248Z,7.50
2022-10-16T10:36:55.305Z,7.20
2022-10-16T10:37:55.229Z,7.50
2022-10-16T10:38:55.237Z,8.30
2022-10-16T10:39:55.218Z,8.60
2022-10-16T10:40:55.209Z,8.70
2022-10-16T10:41:55.225Z,8.70
2022-10-16T10:42:55.171Z,9.30
2022-10-16T10:43:55.171Z,9.60
2022-10-16T10:44:55.152Z,9.50
2022-10-16T10:45:55.123Z,8.30
2022-10-16T10:46:55.197Z,8.60
2022-10-16T10:47:55.106Z,8.10
2022-10-16T10:48:55.126Z,8.00
2022-10-16T10:49:55.136Z,9.20
2022-10-16T10:50:55.096Z,9.20
2022-10-16T10:51:55.119Z,9.10
2022-10-16T10:52:55.074Z,9.00
2022-10-16T10:53:55.064Z,9.40
2022-10-16T10:54:55.051Z,9.20
2022-10-16T10:55:55.051Z,8.20
2022-10-16T10:56:55.084Z,8.20
2022-10-16T10:57:55.017Z,7.90
2022-10-16T10:58:55.011Z,8.80
2022-10-16T10:59:54.991Z,9.00
2022-10-16T11:00:55.011Z,8.70
2022-10-16T11:01:55.064Z,8.90
2022-10-16T11:02:54.988Z,8.60
2022-10-16T11:03:58.400Z,10.10
2022-10-16T11:04:55.931Z,8.80
2022-10-16T11:05:54.910Z,11.00
2022-10-16T11:06:54.976Z,11.20
2022-10-16T11:07:54.895Z,12.80
2022-10-16T11:08:57.639Z,11.40
2022-10-16T11:09:55.911Z,10.30
2022-10-16T11:10:54.871Z,9.50
2022-10-16T11:11:54.908Z,10.50
2022-10-16T11:12:54.834Z,10.70
2022-10-16T11:13:54.847Z,9.80
2022-10-16T11:14:54.844Z,9.20
2022-10-16T11:15:54.809Z,9.70
2022-10-16T11:16:54.838Z,10.80
2022-10-16T11:17:54.789Z,9.30
2022-10-16T11:18:54.804Z,8.80
2022-10-16T11:19:54.775Z,8.50
2022-10-16T11:20:54.775Z,7.60
2022-10-16T11:21:54.804Z,7.50
2022-10-16T11:22:54.746Z,7.50
2022-10-16T11:23:54.730Z,8.20
2022-10-16T11:24:54.753Z,9.50
2022-10-16T11:25:54.729Z,10.50
2022-10-16T11:26:54.757Z,10.20
2022-10-16T11:27:54.691Z,9.50
2022-10-16T11:28:54.732Z,8.70
2022-10-16T11:29:54.665Z,9.70
2022-10-16T11:30:54.655Z,10.70
2022-10-16T11:31:54.704Z,9.60
2022-10-16T11:32:54.613Z,9.00
2022-10-16T11:33:54.651Z,9.30
2022-10-16T11:34:54.621Z,8.90
2022-10-16T11:35:54.585Z,9.20
2022-10-16T11:36:54.626Z,9.90
2022-10-16T11:37:54.568Z,9.50
2022-10-16T11:38:54.573Z,9.30
2022-10-16T11:39:54.567Z,9.20
2022-10-16T11:40:54.562Z,12.70
2022-10-16T11:41:54.578Z,9.90
2022-10-16T11:42:54.529Z,9.90
2022-10-16T11:43:54.530Z,9.30
2022-10-16T11:44:54.524Z,13.60
2022-10-16T11:45:54.508Z,14.10
2022-10-16T11:47:00.624Z,16.80
2022-10-16T11:47:59.891Z,18.90
2022-10-16T11:48:54.483Z,13.60
2022-10-16T11:49:54.476Z,15.70
2022-10-16T11:50:54.436Z,20.80
2022-10-16T11:51:54.465Z,26.90
2022-10-16T11:52:54.416Z,196.00
2022-10-16T11:53:54.409Z,57.20
2022-10-16T11:54:54.399Z,758.40
2022-10-16T11:55:54.390Z,728.30
2022-10-16T11:56:54.421Z,628.70
2022-10-16T11:57:54.340Z,94.60
2022-10-16T11:58:54.385Z,71.60
2022-10-16T11:59:55.307Z,263.00
2022-10-16T12:00:54.354Z,67.50
2022-10-16T12:01:54.369Z,71.40
2022-10-16T12:02:54.289Z,204.10
2022-10-16T12:03:54.311Z,127.90
2022-10-16T12:04:54.265Z,77.00
2022-10-16T12:05:54.322Z,1001.50
2022-10-16T12:06:54.321Z,394.30
2022-10-16T12:07:54.294Z,1067.30
2022-10-16T12:08:54.267Z,1083.10
2022-10-16T12:09:54.285Z,1294.90
2022-10-16T12:10:54.224Z,1133.00
2022-10-16T12:11:54.286Z,1176.10
2022-10-16T12:12:54.240Z,485.50
2022-10-16T12:13:54.201Z,455.30
2022-10-16T12:15:14.667Z,1090.20
2022-10-16T12:15:59.111Z,985.60
2022-10-16T12:16:54.184Z,1999.90
2022-10-16T12:17:54.129Z,1999.90
2022-10-16T12:18:54.140Z,1457.30
2022-10-16T12:19:54.122Z,1972.10
2022-10-16T12:20:54.093Z,1296.60
2022-10-16T12:21:54.128Z,1463.70
2022-10-16T12:22:54.086Z,1798.20
2022-10-16T12:23:54.074Z,923.10
2022-10-16T12:24:54.057Z,864.80
2022-10-16T12:25:54.050Z,412.20
2022-10-16T12:26:54.084Z,995.40
2022-10-16T12:27:54.026Z,1099.10
2022-10-16T12:28:54.153Z,666.80
2022-10-16T12:29:53.997Z,704.70
2022-10-16T12:30:53.998Z,1076.80
2022-10-16T12:31:58.426Z,764.10
2022-10-16T12:32:54.528Z,1205.40
2022-10-16T12:33:53.947Z,1316.70
2022-10-16T12:34:53.937Z,1677.10
2022-10-16T12:35:53.923Z,1633.40